WetterOnline ( https://www.wetteronline.de )

Wetter aktuell Bad Hersfeld

Aktuelles Wetter: Bad Hersfeld (273m)

6-stündlich | Neueste Meldungen
Ortszeit Temperatur Wetter
Do, 21.11. 1:00 2.9° C bedeckt
Mi, 20.11. 19:00 2.3° C bedeckt
Mi, 20.11. 13:00 2.6° C bewölkt
Mi, 20.11. 7:00 0.9° C bedeckt
Mi, 20.11. 1:00 0.2° C leicht bewölkt
Di, 19.11. 19:00 1.6° C wolkig
Di, 19.11. 13:00 5.7° C bedeckt
Di, 19.11. 7:00 3.7° C bedeckt
Ortszeit Temperatur Wetter
Do, 21.11. 6:00 3.7° C bedeckt
Do, 21.11. 5:50 3.7° C bedeckt
Do, 21.11. 5:40 3.6° C bedeckt
Do, 21.11. 5:30 3.6° C bedeckt
Do, 21.11. 5:20 3.6° C bedeckt
Do, 21.11. 5:10 3.5° C bedeckt
Do, 21.11. 5:00 3.4° C bedeckt
Do, 21.11. 4:30 3.4° C bedeckt
Do, 21.11. 4:00 3.4° C bedeckt
Do, 21.11. 3:30 3.4° C bedeckt
Do, 21.11. 3:00 3.3° C bedeckt
Ortszeit Relative Feuchte Sichtweite
Do, 21.11. 1:00 94% 4.2 km
Mi, 20.11. 19:00 91% 7 km
Mi, 20.11. 13:00 89% 8 km
Mi, 20.11. 7:00 98% 4.1 km
Mi, 20.11. 1:00 98% 4.3 km
Di, 19.11. 19:00 94% 10 km
Di, 19.11. 13:00 75% 20 km
Di, 19.11. 7:00 91% 20 km
Ortszeit Relative Feuchte Sichtweite
Do, 21.11. 6:00 94% 7 km
Do, 21.11. 5:50 94% -
Do, 21.11. 5:40 94% -
Do, 21.11. 5:30 95% 5.0 km
Do, 21.11. 5:20 95% -
Do, 21.11. 5:10 95% -
Do, 21.11. 5:00 95% 4.8 km
Do, 21.11. 4:30 96% 3.4 km
Do, 21.11. 4:00 96% 4.3 km
Do, 21.11. 3:30 94% 4.1 km
Do, 21.11. 3:00 95% 3.9 km
Ortszeit Niederschlagsmenge Niederschlagsart
Do, 21.11. 1:00 0.1 l/m2 in 6 Std. Sprühregen
Mi, 20.11. 19:00 0.0 l/m2 in 12 Std. -
Mi, 20.11. 13:00 0.0 l/m2 in 6 Std. -
Mi, 20.11. 7:00 0.0 l/m2 in 12 Std. -
Mi, 20.11. 1:00 0.0 l/m2 in 6 Std. -
Di, 19.11. 19:00 0.1 l/m2 in 12 Std. Regen
Di, 19.11. 13:00 0.0 l/m2 in 6 Std. -
Di, 19.11. 7:00 2 l/m2 in 12 Std. Regen
Ortszeit Niederschlagsmenge Niederschlagsart
Do, 21.11. 6:00 0.0 l/m2 in 1 Std. -
Do, 21.11. 5:50 keine Meldung -
Do, 21.11. 5:40 keine Meldung -
Do, 21.11. 5:30 0.0 l/m2 in 1 Std. -
Do, 21.11. 5:20 keine Meldung -
Do, 21.11. 5:10 keine Meldung -
Do, 21.11. 5:00 0.0 l/m2 in 1 Std. -
Do, 21.11. 4:30 0.0 l/m2 in 1 Std. -
Do, 21.11. 4:00 0.1 l/m2 in 1 Std. Sprühregen
Do, 21.11. 3:30 0.1 l/m2 in 1 Std. Schnee
Do, 21.11. 3:00 0.1 l/m2 in 1 Std. Sprühregen
Ortszeit Stärke Spitze Richtung
km/h Bft. km/h Grad Sektor
Do, 21.11. 1:00 4 1 11 30° NO
Mi, 20.11. 19:00 0 0 14 - -
Mi, 20.11. 13:00 11 2 14 350° N
Mi, 20.11. 7:00 4 1 11 30° NO
Mi, 20.11. 1:00 4 1 7 170° S
Di, 19.11. 19:00 4 1 14 100° O
Di, 19.11. 13:00 7 2 22 210° SW
Di, 19.11. 7:00 9 2 46 170° S
Ortszeit Stärke Spitze Richtung
km/h Bft. km/h Grad Sektor
Do, 21.11. 6:00 4 1 11 340° N
Do, 21.11. 5:50 4 1 - 340° N
Do, 21.11. 5:40 4 1 - 360° N
Do, 21.11. 5:30 6 1 7 340° N
Do, 21.11. 5:20 6 1 - 340° N
Do, 21.11. 5:10 6 1 - 330° NW
Do, 21.11. 5:00 4 1 7 320° NW
Do, 21.11. 4:30 4 1 7 340° N
Do, 21.11. 4:00 4 1 7 310° NW
Do, 21.11. 3:30 4 1 7 40° NO
Do, 21.11. 3:00 4 1 7 10° N
Ortszeit Untergrenze Bedeckung Gattung
total tief tief mittel hoch
Do, 21.11. 1:00 210 m 8/8 8/8 - - -
Mi, 20.11. 19:00 600 m 8/8 8/8 - - -
Mi, 20.11. 13:00 210 m 7/8 7/8 - - -
Mi, 20.11. 7:00 60 m 8/8 8/8 - - -
Mi, 20.11. 1:00 30 m 1/8 4/8 - - -
Di, 19.11. 19:00 2400 m 5/8 5/8 - - -
Di, 19.11. 13:00 510 m 8/8 8/8 - - -
Di, 19.11. 7:00 300 m 8/8 8/8 - - -
Ortszeit Bedeckungsgrad in Achtel und Wolkenuntergrenze
Do, 21.11. 6:00 1(30m) 7(450m) 8(660m)
Do, 21.11. 5:50 1(30m) 7(450m) 8(660m)
Do, 21.11. 5:40 1(30m) 6(420m) 8(690m)
Do, 21.11. 5:30 7(180m) 8(660m) 8(840m)
Do, 21.11. 5:20 7(180m) 8(660m)
Do, 21.11. 5:10 7(180m) 8(690m)
Do, 21.11. 5:00 1(30m) 7(210m) 8(750m)
Do, 21.11. 4:30 3(90m) 7(210m) 8(690m)
Do, 21.11. 4:00 1(30m) 7(540m) 8(810m)
Do, 21.11. 3:30 5(180m) 7(480m) 8(780m)
Do, 21.11. 3:00 8(150m) 8(510m)
Ortszeit Luftdruck NN (hPa) Tendenz (hPa in 3 Std.)
Do, 21.11. 1:00 1014 - 1,2
Mi, 20.11. 19:00 1017 - 0,4
Mi, 20.11. 13:00 1018 - 1,3
Mi, 20.11. 7:00 1020 - 0,6
Mi, 20.11. 1:00 1021 + 0,2
Di, 19.11. 19:00 1020 + 1,0
Di, 19.11. 13:00 1017 + 0,5
Di, 19.11. 7:00 1015 + 1,1
Ortszeit Luftdruck NN (hPa) Tendenz (hPa in 3 Std.)
Do, 21.11. 6:00 1012 - 1,1
Do, 21.11. 5:50 1012 keine Meldung
Do, 21.11. 5:40 1012 keine Meldung
Do, 21.11. 5:30 1012 - 1,2
Do, 21.11. 5:20 1012 keine Meldung
Do, 21.11. 5:10 1012 keine Meldung
Do, 21.11. 5:00 1013 - 1,2
Do, 21.11. 4:30 1013 - 1,2
Do, 21.11. 4:00 1013 - 1,3
Do, 21.11. 3:30 1013 - 1,6
Do, 21.11. 3:00 1013 - 1,5
Ortszeit Schneehöhe (cm)
Do, 21.11. 1:00 0
Mi, 20.11. 19:00 0
Mi, 20.11. 13:00 0
Mi, 20.11. 7:00 0
Mi, 20.11. 1:00 0
Di, 19.11. 19:00 0
Di, 19.11. 13:00 0
Di, 19.11. 7:00 0
Ortszeit Schneehöhe (cm)
Do, 21.11. 6:00 0
Do, 21.11. 5:50 0
Do, 21.11. 5:40 0
Do, 21.11. 5:30 0
Do, 21.11. 5:20 0
Do, 21.11. 5:10 0
Do, 21.11. 5:00 0
Do, 21.11. 4:30 0
Do, 21.11. 4:00 0
Do, 21.11. 3:30 0
Do, 21.11. 3:00 0
Link zu dieser Seite / Seite empfehlen

Das Wetter in ...